Ujar, Russia
Current Conditions -  °F | °C
As of 9:00 PM on Sunday 25 Jan 2015 (Local Time) from UNKL Reporting Station
Clear Clear  
Wind Chill: -22°   Ceiling: Unl
Heat Index: -8°   Visibility: 6mi
Dew Point: -17°   Wind: 7mph
Humidity: 65%   Direction: 260°W
Pressure: 30.89"   Gusts: NA
Location:  55.81°N, 94.31°E
Report Text: UNKL 251400Z 26003MPS CAVOK M22/M27 Q1046 NOSIG RMK QFE75829////65
Loading
Personal Weather Stations






























Interactive Weather Map New forecast layout! Learn more

10-Day Weather Forecast

Advertisements
Track Severe Weather on mobile